createdAt,value
2018-11-28T00:00:29.366Z,18.85
2018-11-28T00:02:58.107Z,20.97
2018-11-28T00:05:26.228Z,19.50
2018-11-28T00:07:54.359Z,19.92
2018-11-28T00:10:22.526Z,20.77
2018-11-28T00:12:50.650Z,19.20
2018-11-28T00:15:18.815Z,19.15
2018-11-28T00:17:46.943Z,17.90
2018-11-28T00:20:17.674Z,17.57
2018-11-28T00:22:45.870Z,17.27
2018-11-28T00:25:14.510Z,17.37
2018-11-28T00:27:42.798Z,17.20
2018-11-28T00:30:26.286Z,17.50
2018-11-28T00:32:54.382Z,17.48
2018-11-28T00:35:23.260Z,17.80
2018-11-28T00:37:51.347Z,16.20
2018-11-28T00:40:21.262Z,17.02
2018-11-28T00:42:49.342Z,17.40
2018-11-28T00:45:22.510Z,18.77
2018-11-28T00:47:50.593Z,16.95
2018-11-28T00:50:26.783Z,16.37
2018-11-28T00:52:54.977Z,15.60
2018-11-28T00:55:23.116Z,18.15
2018-11-28T00:57:51.212Z,17.10
2018-11-28T01:00:20.972Z,16.93
2018-11-28T01:02:49.490Z,16.17
2018-11-28T01:05:17.826Z,17.30
2018-11-28T01:07:46.851Z,17.20
2018-11-28T01:10:16.020Z,16.37
2018-11-28T01:12:44.122Z,17.77
2018-11-28T01:15:14.066Z,16.07
2018-11-28T01:17:42.158Z,15.95
2018-11-28T01:20:13.161Z,18.05
2018-11-28T01:22:41.291Z,15.75
2018-11-28T01:25:10.631Z,16.75
2018-11-28T01:27:38.706Z,15.28
2018-11-28T01:30:11.390Z,15.98
2018-11-28T01:32:39.511Z,17.62
2018-11-28T01:35:09.073Z,16.80
2018-11-28T01:37:37.551Z,19.10
2018-11-28T01:40:07.870Z,17.10
2018-11-28T01:42:35.982Z,17.32
2018-11-28T01:45:04.529Z,16.12
2018-11-28T01:47:32.647Z,15.25
2018-11-28T01:50:01.621Z,17.57
2018-11-28T01:52:28.899Z,17.62
2018-11-28T01:54:57.110Z,16.93
2018-11-28T01:57:25.230Z,16.27
2018-11-28T01:59:53.358Z,16.57
2018-11-28T02:02:21.471Z,16.93
2018-11-28T02:04:49.598Z,15.50
2018-11-28T02:07:17.718Z,15.98
2018-11-28T02:09:45.848Z,16.30
2018-11-28T02:12:13.968Z,17.12
2018-11-28T02:14:42.091Z,15.83
2018-11-28T02:17:10.206Z,14.35
2018-11-28T02:19:38.370Z,17.52
2018-11-28T02:22:06.500Z,17.07
2018-11-28T02:24:34.627Z,14.70
2018-11-28T02:27:02.733Z,18.60
2018-11-28T02:29:30.870Z,19.60
2018-11-28T02:31:58.994Z,17.50
2018-11-28T02:34:27.119Z,17.42
2018-11-28T02:36:55.228Z,18.35
2018-11-28T02:39:23.345Z,18.02
2018-11-28T02:41:51.483Z,19.30
2018-11-28T02:44:19.592Z,20.30
2018-11-28T02:46:47.719Z,18.42
2018-11-28T02:49:15.832Z,16.87
2018-11-28T02:51:43.965Z,18.37
2018-11-28T02:54:12.070Z,17.45
2018-11-28T02:56:40.194Z,18.40
2018-11-28T02:59:08.323Z,20.20
2018-11-28T03:01:36.450Z,19.15
2018-11-28T03:04:04.722Z,17.65
2018-11-28T03:06:32.847Z,16.93
2018-11-28T03:09:00.974Z,18.87
2018-11-28T03:11:29.115Z,20.40
2018-11-28T03:13:57.249Z,19.50
2018-11-28T03:16:25.374Z,19.12
2018-11-28T03:18:53.495Z,18.77
2018-11-28T03:21:21.636Z,17.62
2018-11-28T03:23:49.763Z,20.23
2018-11-28T03:26:17.890Z,19.90
2018-11-28T03:28:46.010Z,17.80
2018-11-28T03:31:14.155Z,19.85
2018-11-28T03:33:42.284Z,20.17
2018-11-28T03:36:10.411Z,18.75
2018-11-28T03:38:38.534Z,18.90
2018-11-28T03:41:06.660Z,17.37
2018-11-28T03:43:34.766Z,18.95
2018-11-28T03:46:02.894Z,17.92
2018-11-28T03:48:31.023Z,17.67
2018-11-28T03:51:00.696Z,17.62
2018-11-28T03:53:27.270Z,14.43
2018-11-28T03:55:55.404Z,16.77
2018-11-28T03:58:23.521Z,15.70
2018-11-28T04:00:51.646Z,14.70
2018-11-28T04:03:19.758Z,14.93
2018-11-28T04:05:48.051Z,14.80
2018-11-28T04:08:16.171Z,14.50
2018-11-28T04:10:44.321Z,15.72
2018-11-28T04:13:12.440Z,15.28
2018-11-28T04:15:40.563Z,14.40
2018-11-28T04:18:08.674Z,15.10
2018-11-28T04:20:36.807Z,13.55
2018-11-28T04:23:05.055Z,14.10
2018-11-28T04:25:33.259Z,13.55
2018-11-28T04:28:01.386Z,15.00
2018-11-28T04:30:29.528Z,13.93
2018-11-28T04:32:58.284Z,26.62
2018-11-28T04:35:26.405Z,19.45
2018-11-28T04:37:54.518Z,20.50
2018-11-28T04:40:22.647Z,19.62
2018-11-28T04:42:50.811Z,16.85
2018-11-28T04:45:21.446Z,15.68
2018-11-28T04:47:49.856Z,15.10
2018-11-28T04:50:17.970Z,14.60
2018-11-28T04:52:46.104Z,12.65
2018-11-28T04:55:15.077Z,13.88
2018-11-28T04:57:43.266Z,12.70
2018-11-28T05:00:15.322Z,12.75
2018-11-28T05:02:43.594Z,11.15
2018-11-28T05:05:11.801Z,11.57
2018-11-28T05:07:40.399Z,12.55
2018-11-28T05:10:16.263Z,9.83
2018-11-28T05:12:44.391Z,11.08
2018-11-28T05:15:13.466Z,10.00
2018-11-28T05:17:41.659Z,10.58
2018-11-28T05:20:12.890Z,10.60
2018-11-28T05:22:41.030Z,11.55
2018-11-28T05:25:15.273Z,11.85
2018-11-28T05:27:43.450Z,14.10
2018-11-28T05:30:14.794Z,12.13
2018-11-28T05:32:42.946Z,12.20
2018-11-28T05:35:13.198Z,12.20
2018-11-28T05:37:41.306Z,11.97
2018-11-28T05:40:11.487Z,11.20
2018-11-28T05:42:39.589Z,11.53
2018-11-28T05:45:09.464Z,12.33
2018-11-28T05:47:37.766Z,11.97
2018-11-28T05:50:09.914Z,12.13
2018-11-28T05:52:38.110Z,11.93
2018-11-28T05:55:07.999Z,12.78
2018-11-28T05:57:36.222Z,11.80
2018-11-28T06:00:07.627Z,11.75
2018-11-28T06:02:35.735Z,12.43
2018-11-28T06:05:04.178Z,12.37
2018-11-28T06:07:32.286Z,11.10
2018-11-28T06:10:00.383Z,12.58
2018-11-28T06:12:28.490Z,12.03
2018-11-28T06:14:56.608Z,13.35
2018-11-28T06:17:24.718Z,12.10
2018-11-28T06:19:52.813Z,11.50
2018-11-28T06:22:20.938Z,12.60
2018-11-28T06:24:49.031Z,12.75
2018-11-28T06:27:17.137Z,12.05
2018-11-28T06:29:45.234Z,12.70
2018-11-28T06:32:13.434Z,12.60
2018-11-28T06:34:41.542Z,11.08
2018-11-28T06:37:09.654Z,11.93
2018-11-28T06:39:37.755Z,11.18
2018-11-28T06:42:06.279Z,12.00
2018-11-28T06:44:34.374Z,11.85
2018-11-28T06:47:02.478Z,12.53
2018-11-28T06:49:30.607Z,11.75
2018-11-28T06:51:58.758Z,10.30
2018-11-28T06:54:27.523Z,10.93
2018-11-28T06:56:55.635Z,12.53
2018-11-28T06:59:23.807Z,11.97
2018-11-28T07:01:51.974Z,12.15
2018-11-28T07:04:20.146Z,12.35
2018-11-28T07:06:48.362Z,10.63
2018-11-28T07:09:16.485Z,11.38
2018-11-28T07:11:44.574Z,11.83
2018-11-28T07:14:12.722Z,10.63
2018-11-28T07:16:40.843Z,10.95
2018-11-28T07:19:10.953Z,12.13
2018-11-28T07:21:39.145Z,12.20
2018-11-28T07:24:07.783Z,12.28
2018-11-28T07:26:35.928Z,12.15
2018-11-28T07:29:04.234Z,11.60
2018-11-28T07:31:32.346Z,11.97
2018-11-28T07:34:00.454Z,12.50
2018-11-28T07:36:28.578Z,12.50
2018-11-28T07:38:56.684Z,11.73
2018-11-28T07:41:25.809Z,12.30
2018-11-28T07:43:53.930Z,11.68
2018-11-28T07:46:22.037Z,11.70
2018-11-28T07:48:50.327Z,12.35
2018-11-28T07:51:18.498Z,11.75
2018-11-28T07:53:46.575Z,12.60
2018-11-28T07:56:14.670Z,11.83
2018-11-28T07:58:42.776Z,11.85
2018-11-28T08:01:10.958Z,10.80
2018-11-28T08:03:39.076Z,13.20
2018-11-28T08:06:07.189Z,12.20
2018-11-28T08:08:37.219Z,12.75
2018-11-28T08:11:06.451Z,11.48
2018-11-28T08:13:34.703Z,10.30
2018-11-28T08:16:02.803Z,11.80
2018-11-28T08:18:30.922Z,11.65
2018-11-28T08:20:59.026Z,12.25
2018-11-28T08:23:28.144Z,11.88
2018-11-28T08:25:55.291Z,10.75
2018-11-28T08:28:23.376Z,11.30
2018-11-28T08:30:51.519Z,11.65
2018-11-28T08:33:19.624Z,13.25
2018-11-28T08:35:47.840Z,12.35
2018-11-28T08:38:15.883Z,12.35
2018-11-28T08:40:43.997Z,12.50
2018-11-28T08:43:12.091Z,13.10
2018-11-28T08:45:40.226Z,11.45
2018-11-28T08:48:08.322Z,11.70
2018-11-28T08:50:37.659Z,11.40
2018-11-28T08:53:06.843Z,12.07
2018-11-28T08:55:34.975Z,12.45
2018-11-28T08:58:03.084Z,11.95
2018-11-28T09:00:31.242Z,11.40
2018-11-28T09:02:59.414Z,12.95
2018-11-28T09:05:27.550Z,11.80
2018-11-28T09:07:55.702Z,12.18
2018-11-28T09:10:23.901Z,11.05
2018-11-28T09:12:52.006Z,12.55
2018-11-28T09:15:22.313Z,11.43
2018-11-28T09:17:50.531Z,11.38
2018-11-28T09:20:18.693Z,12.28
2018-11-28T09:22:46.837Z,11.60
2018-11-28T09:25:15.817Z,12.00
2018-11-28T09:27:45.943Z,12.18
2018-11-28T09:30:15.124Z,11.37
2018-11-28T09:32:43.345Z,12.25
2018-11-28T09:35:12.199Z,11.93
2018-11-28T09:37:45.474Z,11.18
2018-11-28T09:40:17.370Z,11.95
2018-11-28T09:42:49.004Z,11.90
2018-11-28T09:45:17.990Z,11.90
2018-11-28T09:47:46.121Z,11.97
2018-11-28T09:50:17.396Z,11.50
2018-11-28T09:52:45.506Z,12.10
2018-11-28T09:55:14.787Z,10.20
2018-11-28T09:57:46.142Z,10.80
2018-11-28T10:00:18.090Z,10.10
2018-11-28T10:02:46.255Z,9.73
2018-11-28T10:05:15.755Z,10.30
2018-11-28T10:07:43.900Z,10.20
2018-11-28T10:10:12.826Z,9.37
2018-11-28T10:12:40.971Z,9.90
2018-11-28T10:15:21.192Z,9.97
2018-11-28T10:17:49.502Z,8.70
2018-11-28T10:20:20.877Z,9.27
2018-11-28T10:22:50.031Z,9.37
2018-11-28T10:25:19.278Z,10.57
2018-11-28T10:27:48.679Z,10.40
2018-11-28T10:30:21.777Z,10.20
2018-11-28T10:32:50.498Z,8.50
2018-11-28T10:35:18.594Z,10.30
2018-11-28T10:37:46.715Z,10.60
2018-11-28T10:40:18.806Z,9.90
2018-11-28T10:42:53.497Z,8.88
2018-11-28T10:45:22.680Z,8.37
2018-11-28T10:47:50.783Z,9.20
2018-11-28T10:50:18.890Z,9.10
2018-11-28T10:52:46.996Z,8.67
2018-11-28T10:55:18.971Z,9.23
2018-11-28T10:57:47.067Z,8.50
2018-11-28T11:00:26.886Z,9.53
2018-11-28T11:03:00.245Z,9.70
2018-11-28T11:05:34.791Z,9.30
2018-11-28T11:08:08.479Z,11.07
2018-11-28T11:10:41.970Z,9.97
2018-11-28T11:13:16.608Z,9.80
2018-11-28T11:15:48.972Z,10.73
2018-11-28T11:18:17.108Z,9.40
2018-11-28T11:20:45.243Z,9.67
2018-11-28T11:23:13.358Z,10.10
2018-11-28T11:25:41.502Z,9.63
2018-11-28T11:28:09.618Z,8.60
2018-11-28T11:30:37.746Z,9.70
2018-11-28T11:33:05.886Z,8.07
2018-11-28T11:35:34.076Z,8.73
2018-11-28T11:38:02.216Z,8.57
2018-11-28T11:40:30.363Z,9.83
2018-11-28T11:42:58.450Z,8.70
2018-11-28T11:45:26.579Z,9.80
2018-11-28T11:47:54.683Z,9.30
2018-11-28T11:50:22.807Z,9.37
2018-11-28T11:52:50.951Z,10.07
2018-11-28T11:55:22.691Z,8.40
2018-11-28T11:57:50.814Z,8.33
2018-11-28T12:00:21.778Z,8.90
2018-11-28T12:02:58.240Z,8.83
2018-11-28T12:05:26.348Z,9.50
2018-11-28T12:07:54.438Z,8.70
2018-11-28T12:10:22.546Z,9.43
2018-11-28T12:12:51.752Z,9.67
2018-11-28T12:15:18.800Z,9.43
2018-11-28T12:17:47.881Z,8.57
2018-11-28T12:20:26.684Z,8.50
2018-11-28T12:22:54.818Z,9.37
2018-11-28T12:25:22.934Z,9.87
2018-11-28T12:27:51.035Z,8.80
2018-11-28T12:30:19.169Z,9.73
2018-11-28T12:32:47.285Z,8.70
2018-11-28T12:35:17.361Z,8.77
2018-11-28T12:37:45.479Z,9.47
2018-11-28T12:40:15.451Z,8.73
2018-11-28T12:42:50.088Z,9.67
2018-11-28T12:45:19.196Z,9.80
2018-11-28T12:47:48.006Z,8.87
2018-11-28T12:50:19.219Z,8.60
2018-11-28T12:52:47.356Z,8.47
2018-11-28T12:55:15.703Z,9.03
2018-11-28T12:57:43.814Z,9.80
2018-11-28T13:00:17.163Z,9.67
2018-11-28T13:02:45.327Z,9.93
2018-11-28T13:05:15.627Z,9.90
2018-11-28T13:07:43.767Z,10.23
2018-11-28T13:10:15.055Z,10.37
2018-11-28T13:12:43.655Z,9.27
2018-11-28T13:15:13.044Z,9.63
2018-11-28T13:17:41.207Z,8.83
2018-11-28T13:20:10.730Z,10.77
2018-11-28T13:22:39.017Z,10.40
2018-11-28T13:25:09.035Z,10.93
2018-11-28T13:27:37.201Z,10.20
2018-11-28T13:30:11.211Z,12.40
2018-11-28T13:32:39.913Z,11.07
2018-11-28T13:35:08.080Z,11.20
2018-11-28T13:37:36.222Z,10.23
2018-11-28T13:40:04.598Z,10.90
2018-11-28T13:42:32.755Z,10.17
2018-11-28T13:45:00.908Z,11.20
2018-11-28T13:47:29.058Z,11.20
2018-11-28T13:49:57.215Z,10.10
2018-11-28T13:52:25.400Z,11.33
2018-11-28T13:55:37.738Z,10.37
2018-11-28T13:57:22.191Z,10.73
2018-11-28T13:59:49.914Z,11.00
2018-11-28T14:02:18.071Z,11.03
2018-11-28T14:04:46.223Z,10.90
2018-11-28T14:07:14.367Z,11.43
2018-11-28T14:09:42.522Z,11.20
2018-11-28T14:12:10.670Z,10.47
2018-11-28T14:14:38.805Z,12.00
2018-11-28T14:17:06.914Z,10.10
2018-11-28T14:19:35.043Z,11.27
2018-11-28T14:22:03.166Z,11.13
2018-11-28T14:24:31.308Z,10.50
2018-11-28T14:27:00.399Z,10.57
2018-11-28T14:29:29.544Z,10.70
2018-11-28T14:31:57.654Z,10.77
2018-11-28T14:34:25.791Z,11.70
2018-11-28T14:36:53.902Z,11.30
2018-11-28T14:39:22.028Z,10.50
2018-11-28T14:41:50.157Z,11.67
2018-11-28T14:44:18.310Z,11.57
2018-11-28T14:46:46.502Z,12.87
2018-11-28T14:49:15.430Z,12.60
2018-11-28T14:51:43.534Z,11.67
2018-11-28T14:54:11.664Z,13.67
2018-11-28T14:56:39.775Z,12.43
2018-11-28T14:59:07.907Z,12.13
2018-11-28T15:01:36.078Z,13.30
2018-11-28T15:04:04.199Z,14.00
2018-11-28T15:07:05.411Z,13.10
2018-11-28T15:09:39.079Z,12.50
2018-11-28T15:12:11.781Z,12.27
2018-11-28T15:14:37.810Z,14.33
2018-11-28T15:17:06.040Z,13.60
2018-11-28T15:19:34.236Z,13.60
2018-11-28T15:22:02.394Z,13.53
2018-11-28T15:24:30.563Z,15.08
2018-11-28T15:26:58.699Z,13.73
2018-11-28T15:29:26.866Z,13.83
2018-11-28T15:31:55.004Z,14.27
2018-11-28T15:34:23.146Z,15.60
2018-11-28T15:36:51.294Z,14.18
2018-11-28T15:39:19.534Z,13.65
2018-11-28T15:41:47.679Z,14.20
2018-11-28T15:44:15.835Z,13.88
2018-11-28T15:46:43.986Z,13.65
2018-11-28T15:49:12.132Z,13.10
2018-11-28T15:51:40.367Z,14.80
2018-11-28T15:54:08.515Z,14.28
2018-11-28T15:56:36.690Z,15.85
2018-11-28T15:59:05.454Z,14.63
2018-11-28T16:01:33.602Z,14.50
2018-11-28T16:04:01.791Z,15.00
2018-11-28T16:06:29.946Z,15.48
2018-11-28T16:08:58.133Z,15.13
2018-11-28T16:11:26.291Z,14.00
2018-11-28T16:13:54.447Z,15.55
2018-11-28T16:16:22.586Z,14.65
2018-11-28T16:18:50.728Z,15.70
2018-11-28T16:21:18.860Z,18.87
2018-11-28T16:23:46.991Z,18.32
2018-11-28T16:26:15.194Z,14.70
2018-11-28T16:28:43.334Z,15.58
2018-11-28T16:31:11.491Z,15.07
2018-11-28T16:33:39.606Z,14.93
2018-11-28T16:36:07.750Z,15.90
2018-11-28T16:38:35.858Z,15.95
2018-11-28T16:41:04.003Z,14.65
2018-11-28T16:43:32.113Z,15.65
2018-11-28T16:46:00.250Z,15.15
2018-11-28T16:48:28.359Z,16.70
2018-11-28T16:50:56.501Z,15.70
2018-11-28T16:53:24.623Z,17.05
2018-11-28T16:55:53.754Z,14.68
2018-11-28T16:58:21.889Z,15.63
2018-11-28T17:00:50.143Z,15.55
2018-11-28T17:03:18.282Z,15.45
2018-11-28T17:05:46.412Z,15.50
2018-11-28T17:08:14.606Z,14.33
2018-11-28T17:10:42.719Z,15.80
2018-11-28T17:13:10.833Z,15.70
2018-11-28T17:15:38.991Z,14.90
2018-11-28T17:18:07.135Z,15.00
2018-11-28T17:20:36.270Z,16.75
2018-11-28T17:23:04.847Z,14.80
2018-11-28T17:25:33.130Z,14.03
2018-11-28T17:28:01.267Z,18.42
2018-11-28T17:30:30.159Z,15.13
2018-11-28T17:32:58.284Z,17.10
2018-11-28T17:35:26.421Z,16.63
2018-11-28T17:37:54.585Z,14.43
2018-11-28T17:40:24.011Z,15.53
2018-11-28T17:42:53.315Z,15.18
2018-11-28T17:45:21.823Z,16.83
2018-11-28T17:47:49.945Z,15.15
2018-11-28T17:50:19.918Z,15.30
2018-11-28T17:53:19.131Z,15.70
2018-11-28T17:55:49.613Z,14.47
2018-11-28T17:58:17.785Z,13.93
2018-11-28T18:00:46.928Z,15.43
2018-11-28T18:03:15.097Z,15.70
2018-11-28T18:05:43.272Z,15.60
2018-11-28T18:08:11.422Z,15.15
2018-11-28T18:10:39.528Z,15.93
2018-11-28T18:13:12.782Z,15.90
2018-11-28T18:15:42.388Z,16.10
2018-11-28T18:18:15.466Z,16.15
2018-11-28T18:20:49.916Z,16.87
2018-11-28T18:23:12.965Z,14.90
2018-11-28T18:25:41.819Z,15.80
2018-11-28T18:28:16.226Z,14.57
2018-11-28T18:30:45.359Z,16.57
2018-11-28T18:33:14.022Z,15.40
2018-11-28T18:35:42.206Z,14.60
2018-11-28T18:38:10.347Z,13.80
2018-11-28T18:40:38.466Z,14.63
2018-11-28T18:43:07.556Z,15.53
2018-11-28T18:45:37.570Z,14.00
2018-11-28T18:48:05.956Z,13.50
2018-11-28T18:50:34.066Z,14.43
2018-11-28T18:53:02.193Z,14.43
2018-11-28T18:55:30.479Z,14.43
2018-11-28T18:57:58.692Z,14.47
2018-11-28T19:00:27.378Z,13.70
2018-11-28T19:02:55.976Z,14.30
2018-11-28T19:05:24.122Z,15.73
2018-11-28T19:07:52.248Z,14.97
2018-11-28T19:10:26.408Z,14.47
2018-11-28T19:12:50.919Z,16.13
2018-11-28T19:15:23.038Z,15.60
2018-11-28T19:17:51.323Z,14.80
2018-11-28T19:20:20.524Z,18.70
2018-11-28T19:22:49.063Z,17.10
2018-11-28T19:25:18.286Z,17.07
2018-11-28T19:27:46.591Z,16.77
2018-11-28T19:30:32.391Z,16.10
2018-11-28T19:33:00.548Z,17.50
2018-11-28T19:35:28.707Z,16.63
2018-11-28T19:37:56.859Z,15.73
2018-11-28T19:40:26.475Z,15.17
2018-11-28T19:42:54.607Z,15.93
2018-11-28T19:45:22.867Z,17.70
2018-11-28T19:47:51.019Z,15.87
2018-11-28T19:50:28.411Z,16.47
2018-11-28T19:52:56.579Z,18.90
2018-11-28T19:55:24.750Z,17.40
2018-11-28T19:57:53.572Z,16.77
2018-11-28T20:00:21.727Z,15.00
2018-11-28T20:02:49.896Z,14.70
2018-11-28T20:05:18.059Z,15.47
2018-11-28T20:07:47.424Z,16.07
2018-11-28T20:10:18.771Z,16.20
2018-11-28T20:12:46.953Z,14.23
2018-11-28T20:15:18.224Z,16.73
2018-11-28T20:17:46.411Z,15.83
2018-11-28T20:20:15.915Z,16.30
2018-11-28T20:22:44.076Z,16.15
2018-11-28T20:25:14.189Z,14.77
2018-11-28T20:27:43.066Z,13.30
2018-11-28T20:30:15.852Z,14.07
2018-11-28T20:32:44.008Z,15.03
2018-11-28T20:35:12.148Z,14.80
2018-11-28T20:37:40.834Z,13.90
2018-11-28T20:40:11.628Z,13.87
2018-11-28T20:42:39.994Z,11.97
2018-11-28T20:45:09.644Z,12.82
2018-11-28T20:47:37.799Z,13.28
2018-11-28T20:50:09.328Z,12.67
2018-11-28T20:52:37.455Z,12.60
2018-11-28T20:55:06.502Z,13.60
2018-11-28T20:57:34.627Z,13.30
2018-11-28T21:00:02.775Z,13.50
2018-11-28T21:02:30.887Z,13.60
2018-11-28T21:04:59.014Z,12.68
2018-11-28T21:07:27.121Z,12.37
2018-11-28T21:10:00.478Z,11.87
2018-11-28T21:12:28.574Z,10.43
2018-11-28T21:14:56.691Z,12.70
2018-11-28T21:17:24.866Z,10.83
2018-11-28T21:19:52.994Z,10.93
2018-11-28T21:22:21.139Z,10.47
2018-11-28T21:24:49.270Z,9.70
2018-11-28T21:27:17.408Z,11.37
2018-11-28T21:29:45.539Z,11.20
2018-11-28T21:32:13.691Z,11.33
2018-11-28T21:34:41.811Z,10.93
2018-11-28T21:37:09.950Z,11.50
2018-11-28T21:39:38.116Z,11.63
2018-11-28T21:42:06.255Z,11.00
2018-11-28T21:44:34.398Z,10.97
2018-11-28T21:47:02.537Z,11.50
2018-11-28T21:49:30.689Z,10.90
2018-11-28T21:51:58.859Z,10.93
2018-11-28T21:54:27.011Z,10.57
2018-11-28T21:56:55.143Z,10.20
2018-11-28T21:59:23.274Z,10.50
2018-11-28T22:01:51.418Z,9.10
2018-11-28T22:04:19.550Z,10.43
2018-11-28T22:06:47.686Z,10.40
2018-11-28T22:09:15.821Z,10.07
2018-11-28T22:11:43.962Z,10.03
2018-11-28T22:14:12.130Z,10.73
2018-11-28T22:16:40.310Z,10.33
2018-11-28T22:19:08.443Z,9.50
2018-11-28T22:21:36.594Z,9.93
2018-11-28T22:24:04.818Z,9.83
2018-11-28T22:26:32.955Z,10.60
2018-11-28T22:29:01.094Z,11.33
2018-11-28T22:31:29.223Z,10.90
2018-11-28T22:33:57.366Z,10.20
2018-11-28T22:36:25.951Z,10.33
2018-11-28T22:38:54.103Z,11.33
2018-11-28T22:41:22.246Z,10.90
2018-11-28T22:43:50.817Z,10.90
2018-11-28T22:46:18.956Z,11.83
2018-11-28T22:48:47.083Z,10.23
2018-11-28T22:51:15.214Z,10.63
2018-11-28T22:53:43.354Z,12.90
2018-11-28T22:56:11.486Z,10.77
2018-11-28T22:58:39.618Z,11.20
2018-11-28T23:01:11.661Z,12.23
2018-11-28T23:03:39.798Z,11.43
2018-11-28T23:06:07.927Z,12.27
2018-11-28T23:08:36.071Z,11.73
2018-11-28T23:11:04.230Z,11.60
2018-11-28T23:13:32.382Z,12.37
2018-11-28T23:16:00.486Z,12.53
2018-11-28T23:18:28.591Z,12.37
2018-11-28T23:20:56.698Z,12.50
2018-11-28T23:23:24.813Z,12.83
2018-11-28T23:25:52.964Z,13.13
2018-11-28T23:28:21.179Z,11.87
2018-11-28T23:30:49.327Z,12.63
2018-11-28T23:33:17.503Z,13.77
2018-11-28T23:35:45.657Z,12.53
2018-11-28T23:38:14.860Z,13.00
2018-11-28T23:40:42.958Z,13.60
2018-11-28T23:43:11.080Z,13.90
2018-11-28T23:45:40.215Z,13.77
2018-11-28T23:48:09.786Z,13.67
2018-11-28T23:50:37.982Z,14.03
2018-11-28T23:53:06.134Z,13.63
2018-11-28T23:55:34.342Z,14.00
2018-11-28T23:58:02.505Z,14.50
